PWSweather.com
Personal Weather Stations
Station Observations
WISCHPK61
Green Bay Schmitt Park, Green Bay, WI 54311

Green Bay Schmitt ParkGreen Bay, WI 54311

Lat: 44.514277, Lon: -87.935067

Elevation: 735

Station Type: Acu Rite Pro Weather Center model 02032C

http://greenbayweathercam.com

High Low Average
Temperature 88.2°F31.2°C 51.6°F10.9°C 64.7°F18.2°C
Dew Point 78.7°F25.9°C 50.0°F10.0°C 60.8°F16.0°C
Winds 1.2 mph 1.9 kmh Calm Calm Calm SWCalm SW
Wind Gusts 1.2 mph1.9 kmh -- --
Humidity 99% 30% 91%
Pressure 29.23 in989.8 mb 29.17 in987.8 mb -
Precipitation 0.00 in0.0 mm - -
Hour Temp Dew Point Humidity Winds Wind Gusts Pressure Precip Precip Rate Daily Precip Total
12:00 AM 56.5°F13.6°C 48.7°F9.3°C 75% Calm Calm -- 29.20 in988.8 mb - 0.00 in0.0 mm 0.00 in0.0 mm
01:00 AM 55.8°F13.2°C 55.5°F13.1°C 99% Calm Calm -- 29.19 in988.5 mb - 0.00 in0.0 mm 0.00 in0.0 mm
02:00 AM 55.2°F12.9°C 54.9°F12.7°C 99% Calm Calm -- 29.19 in988.5 mb - 0.00 in0.0 mm 0.00 in0.0 mm
03:00 AM 54.3°F12.4°C 54.0°F12.2°C 99% Calm Calm -- 29.19 in988.5 mb - 0.00 in0.0 mm 0.00 in0.0 mm
04:00 AM 54.5°F12.5°C 54.2°F12.3°C 99% Calm Calm -- 29.19 in988.5 mb - 0.00 in0.0 mm 0.00 in0.0 mm
05:00 AM 54.7°F12.6°C 54.4°F12.4°C 99% 1.2 mph SSW1.9 kmh SSW 1.2 mph1.9 kmh 29.19 in988.5 mb - 0.00 in0.0 mm 0.00 in0.0 mm
06:00 AM 54.3°F12.4°C 54.0°F12.2°C 99% Calm Calm -- 29.20 in988.8 mb - 0.00 in0.0 mm 0.00 in0.0 mm
07:00 AM 54.9°F12.7°C 54.6°F12.6°C 99% Calm Calm -- 29.22 in989.5 mb - 0.00 in0.0 mm 0.00 in0.0 mm
08:00 AM 57.9°F14.4°C 57.6°F14.2°C 99% Calm Calm -- 29.23 in989.8 mb - 0.00 in0.0 mm 0.00 in0.0 mm
09:00 AM 68.0°F20.0°C 67.7°F19.8°C 99% Calm Calm -- 29.23 in989.8 mb - 0.00 in0.0 mm 0.00 in0.0 mm
10:00 AM 72.5°F22.5°C 72.2°F22.3°C 99% 1.2 mph NW1.9 kmh NW 1.2 mph1.9 kmh 29.23 in989.8 mb - 0.00 in0.0 mm 0.00 in0.0 mm
11:00 AM 77.2°F25.1°C 76.9°F24.9°C 99% Calm Calm -- 29.22 in989.5 mb - 0.00 in0.0 mm 0.00 in0.0 mm
12:00 PM 80.2°F26.8°C 52.3°F11.3°C 38% Calm Calm -- 29.22 in989.5 mb - 0.00 in0.0 mm 0.00 in0.0 mm
01:00 PM 85.2°F29.6°C 72.5°F22.5°C 66% Calm Calm -- 29.21 in989.2 mb - 0.00 in0.0 mm 0.00 in0.0 mm
02:00 PM 88.2°F31.2°C 76.3°F24.6°C 68% Calm Calm -- 29.19 in988.5 mb - 0.00 in0.0 mm 0.00 in0.0 mm
03:00 PM 84.9°F29.4°C 50.0°F10.0°C 30% Calm Calm -- 29.18 in988.1 mb - 0.00 in0.0 mm 0.00 in0.0 mm
04:00 PM 79.0°F26.1°C 78.7°F25.9°C 99% Calm Calm -- 29.17 in987.8 mb - 0.00 in0.0 mm 0.00 in0.0 mm
05:00 PM 71.8°F22.1°C 71.5°F21.9°C 99% Calm Calm -- 29.18 in988.1 mb - 0.00 in0.0 mm 0.00 in0.0 mm
06:00 PM 66.4°F19.1°C 66.1°F18.9°C 99% Calm Calm -- 29.18 in988.1 mb - 0.00 in0.0 mm 0.00 in0.0 mm
07:00 PM 63.3°F17.4°C 63.0°F17.2°C 99% Calm Calm -- 29.19 in988.5 mb - 0.00 in0.0 mm 0.00 in0.0 mm
08:00 PM 59.7°F15.4°C 59.4°F15.2°C 99% Calm Calm -- 29.20 in988.8 mb - 0.00 in0.0 mm 0.00 in0.0 mm
09:00 PM 56.1°F13.4°C 55.8°F13.2°C 99% Calm Calm -- 29.21 in989.2 mb - 0.00 in0.0 mm 0.00 in0.0 mm
10:00 PM 53.6°F12.0°C 53.3°F11.8°C 99% Calm Calm -- 29.21 in989.2 mb - 0.00 in0.0 mm 0.00 in0.0 mm
11:00 PM 52.9°F11.6°C 52.6°F11.4°C 99% Calm Calm -- 29.20 in988.8 mb - 0.00 in0.0 mm 0.00 in0.0 mm